.
WxDataArchive / Data Records for 2007-11-18
2007-11-17 November 2007 2007-11-19

Data Records for Sunday, 18 November 2007

Time	Temp	Chill	HIndex	Humid	Dewpt	 Wind 	HiWind	WindDir	Rain 	Barom 
-----	----	-----	------	-----	-----	------	------	-------	-----	----- 
00:00	36.5	36.5	36.5	92	34.4	1	2	45	0.00	30.044 
00:05	36.5	36.5	36.5	92	34.4	1	4	90	0.00	30.044 
00:10	36.5	36.5	36.5	92	34.4	1	4	45	0.00	30.045 
00:15	36.5	36.5	36.5	92	34.4	1	6	45	0.00	30.045 
00:20	36.5	36.5	36.5	92	34.4	1	4	112	0.00	30.046 
00:25	36.5	36.5	36.5	91	34.1	2	6	90	0.00	30.046 
00:30	36.5	36.5	36.5	91	34.1	2	7	90	0.00	30.049 
00:35	36.5	36.5	36.5	91	34.1	1	3	112	0.00	30.054 
00:40	36.5	36.5	36.5	91	34.1	1	4	112	0.00	30.055 
00:45	36.5	36.5	36.5	91	34.1	2	6	90	0.00	30.055 
00:50	36.5	36.5	36.5	91	34.1	2	5	90	0.00	30.059 
00:55	36.5	36.5	36.5	91	34.1	1	6	90	0.00	30.061 
01:00	36.5	36.5	36.5	91	34.1	1	4	112	0.00	30.060 
01:05	36.6	36.6	36.6	91	34.2	1	4	112	0.00	30.063 
01:10	36.6	36.6	36.6	91	34.2	1	4	112	0.00	30.063 
01:15	36.6	36.6	36.6	91	34.2	1	5	112	0.00	30.063 
01:20	36.5	36.5	36.5	91	34.1	1	6	112	0.00	30.064 
01:25	36.6	36.6	36.6	91	34.2	1	3	112	0.00	30.068 
01:30	36.5	36.5	36.5	91	34.1	1	4	90	0.00	30.072 
01:35	36.6	36.6	36.6	91	34.2	1	5	90	0.00	30.076 
01:40	36.6	36.6	36.6	91	34.2	1	5	112	0.00	30.078 
01:45	36.6	36.6	36.6	91	34.2	1	4	112	0.00	30.076 
01:50	36.6	36.6	36.6	91	34.2	1	6	45	0.00	30.076 
01:55	36.5	36.5	36.5	91	34.1	1	4	112	0.00	30.074 
02:00	36.5	36.5	36.5	91	34.1	1	4	112	0.00	30.078 
02:05	36.5	36.5	36.5	91	34.1	1	5	45	0.00	30.080 
02:10	36.5	36.5	36.5	91	34.1	1	3	90	0.00	30.081 
02:15	36.5	36.5	36.5	91	34.1	0	4	112	0.00	30.085 
02:20	36.3	36.3	36.3	91	33.9	0	2	112	0.00	30.093 
02:25	36.3	36.3	36.3	91	33.9	1	4	112	0.00	30.096 
02:30	36.3	36.3	36.3	91	33.9	0	2	112	0.00	30.097 
02:35	36.3	36.3	36.3	91	33.9	1	4	68	0.00	30.098 
02:40	36.3	36.3	36.3	91	33.9	1	3	45	0.00	30.101 
02:45	36.3	36.3	36.3	91	33.9	0	3	112	0.00	30.104 
02:50	36.2	36.2	36.2	91	33.8	1	4	112	0.00	30.104 
02:55	36.2	36.2	36.2	91	33.8	1	5	112	0.00	30.107 
03:00	36.2	36.2	36.2	91	33.8	1	3	68	0.00	30.109 
03:05	36.2	36.2	36.2	91	33.8	1	5	45	0.00	30.109 
03:10	36.2	36.2	36.2	91	33.8	0	2	45	0.00	30.110 
03:15	36.2	36.2	36.2	91	33.8	0	2	45	0.00	30.111 
03:20	36.0	36.0	36.0	91	33.6	0	2	90	0.00	30.112 
03:25	36.0	36.0	36.0	92	33.9	1	3	135	0.00	30.113 
03:30	36.0	36.0	36.0	92	33.9	0	2	112	0.00	30.113 
03:35	36.0	36.0	36.0	91	33.6	1	3	112	0.00	30.114 
03:40	36.0	36.0	36.0	91	33.6	1	3	135	0.00	30.115 
03:45	36.0	36.0	36.0	91	33.6	0	3	45	0.00	30.116 
03:50	36.0	36.0	36.0	91	33.6	0	2	112	0.00	30.118 
03:55	36.0	36.0	36.0	91	33.6	1	5	90	0.00	30.123 
04:00	36.0	36.0	36.0	91	33.6	1	4	68	0.00	30.125 
04:05	36.2	36.2	36.2	91	33.8	0	4	112	0.00	30.129 
04:10	36.0	36.0	36.0	91	33.6	1	3	112	0.00	30.129 
04:15	36.0	36.0	36.0	91	33.6	1	4	90	0.00	30.129 
04:20	36.0	36.0	36.0	91	33.6	1	4	68	0.00	30.130 
04:25	36.0	36.0	36.0	91	33.6	1	3	90	0.00	30.130 
04:30	36.0	36.0	36.0	91	33.6	1	2	135	0.00	30.132 
04:35	36.0	36.0	36.0	91	33.6	1	3	90	0.00	30.133 
04:40	36.0	36.0	36.0	91	33.6	1	6	90	0.00	30.141 
04:45	36.0	36.0	36.0	91	33.6	0	2	90	0.00	30.145 
04:50	36.0	36.0	36.0	91	33.6	1	2	90	0.00	30.145 
04:55	36.0	36.0	36.0	90	33.4	1	5	112	0.00	30.145 
05:00	36.0	36.0	36.0	91	33.6	0	2	90	0.00	30.146 
05:05	36.0	36.0	36.0	91	33.6	0	4	112	0.00	30.150 
05:10	36.0	36.0	36.0	91	33.6	1	2	68	0.00	30.152 
05:15	36.0	36.0	36.0	91	33.6	1	4	45	0.01	30.152 
05:20	36.0	36.0	36.0	91	33.6	0	2	68	0.00	30.155 
05:25	35.9	35.9	35.9	91	33.5	1	5	135	0.00	30.156 
05:30	35.9	35.9	35.9	91	33.5	1	3	135	0.00	30.157 
05:35	35.9	35.9	35.9	91	33.5	0	3	112	0.00	30.159 
05:40	35.9	35.9	35.9	91	33.5	1	4	90	0.00	30.159 
05:45	35.9	35.9	35.9	91	33.5	1	3	135	0.00	30.160 
05:50	35.9	35.9	35.9	91	33.5	1	3	135	0.00	30.161 
05:55	35.9	35.9	35.9	91	33.5	1	6	45	0.00	30.160 
06:00	35.8	35.8	35.8	91	33.4	1	4	112	0.00	30.162 
06:05	35.8	35.8	35.8	91	33.4	1	5	112	0.00	30.162 
06:10	35.8	35.8	35.8	91	33.4	1	3	68	0.00	30.162 
06:15	35.8	35.8	35.8	91	33.4	1	4	112	0.00	30.164 
06:20	35.8	35.8	35.8	91	33.4	1	6	90	0.00	30.167 
06:25	35.8	35.8	35.8	91	33.4	1	5	112	0.00	30.174 
06:30	35.6	35.6	35.6	91	33.2	2	5	45	0.00	30.176 
06:35	35.6	35.6	35.6	91	33.2	1	4	112	0.00	30.177 
06:40	35.5	35.5	35.5	90	32.9	2	4	45	0.00	30.179 
06:45	35.5	35.5	35.5	90	32.9	2	6	112	0.00	30.178 
06:50	35.5	35.5	35.5	90	32.9	2	4	112	0.00	30.178 
06:55	35.3	35.3	35.3	90	32.7	2	9	45	0.00	30.179 
07:00	35.3	35.3	35.3	89	32.4	2	5	112	0.00	30.182 
07:05	35.3	35.3	35.3	89	32.4	2	6	112	0.00	30.183 
07:10	35.3	35.3	35.3	89	32.4	1	3	68	0.00	30.190 
07:15	35.2	35.2	35.2	89	32.3	1	3	68	0.00	30.196 
07:20	35.2	35.2	35.2	89	32.3	2	6	112	0.00	30.197 
07:25	35.2	35.2	35.2	89	32.3	1	4	112	0.00	30.199 
07:30	35.2	35.2	35.2	89	32.3	1	3	68	0.00	30.201 
07:35	35.2	35.2	35.2	89	32.3	2	5	45	0.00	30.206 
07:40	35.2	35.2	35.2	89	32.3	1	5	112	0.00	30.210 
07:45	35.0	35.0	35.0	89	32.1	2	9	90	0.00	30.212 
07:50	35.0	35.0	35.0	89	32.1	2	6	112	0.00	30.212 
07:55	34.9	34.9	34.9	89	32.0	1	5	90	0.00	30.213 
08:00	34.9	34.9	34.9	89	32.0	1	6	90	0.00	30.214 
08:05	34.7	34.7	34.7	89	31.8	2	6	112	0.00	30.215 
08:10	34.7	34.7	34.7	89	31.8	1	5	112	0.00	30.217 
08:15	34.6	34.6	34.6	89	31.7	3	6	112	0.00	30.225 
08:20	34.6	34.6	34.6	88	31.4	2	6	68	0.00	30.228 
08:25	34.6	34.6	34.6	88	31.4	2	7	90	0.00	30.229 
08:30	34.6	34.6	34.6	88	31.4	2	7	90	0.00	30.230 
08:35	34.4	34.4	34.4	88	31.2	2	6	90	0.00	30.232 
08:40	34.4	34.4	34.4	88	31.2	2	5	112	0.00	30.234 
08:45	34.4	34.4	34.4	88	31.2	1	5	112	0.00	30.237 
08:50	34.6	34.6	34.6	88	31.4	2	7	90	0.00	30.242 
08:55	34.6	34.6	34.6	88	31.4	1	4	112	0.00	30.243 
09:00	34.7	34.7	34.7	88	31.5	2	5	135	0.00	30.243 
09:05	34.7	34.7	34.7	88	31.5	1	5	112	0.00	30.243 
09:10	34.9	34.9	34.9	88	31.7	1	4	112	0.00	30.244 
09:15	34.9	34.9	34.9	88	31.7	1	5	112	0.00	30.245 
09:20	35.0	35.0	35.0	87	31.5	2	5	112	0.00	30.245 
09:25	35.0	35.0	35.0	87	31.5	2	7	112	0.00	30.249 
09:30	35.0	35.0	35.0	86	31.2	2	7	112	0.00	30.254 
09:35	35.2	35.2	35.2	87	31.7	1	3	45	0.00	30.257 
09:40	35.3	35.3	35.3	86	31.5	2	8	112	0.00	30.259 
09:45	35.6	35.6	35.6	86	31.8	2	3	112	0.00	30.258 
09:50	35.6	35.6	35.6	85	31.5	3	12	90	0.00	30.259 
09:55	35.6	35.6	35.6	84	31.3	3	10	112	0.00	30.262 
10:00	35.6	35.6	35.6	85	31.5	2	4	112	0.00	30.263 
10:05	35.8	35.8	35.8	84	31.4	2	5	112	0.00	30.264 
10:10	35.9	35.9	35.9	84	31.5	1	4	90	0.00	30.267 
10:15	35.9	35.9	35.9	82	31.0	1	5	45	0.00	30.270 
10:20	36.2	36.2	36.2	82	31.2	2	5	90	0.00	30.272 
10:25	36.3	36.3	36.3	81	31.0	1	5	135	0.00	30.273 
10:30	36.5	36.5	36.5	81	31.2	2	4	112	0.00	30.274 
10:35	36.5	36.5	36.5	79	30.6	2	4	112	0.00	30.277 
10:40	36.6	36.6	36.6	79	30.7	2	7	112	0.00	30.279 
10:45	36.8	36.8	36.8	79	30.9	2	7	112	0.00	30.278 
10:50	36.9	36.9	36.9	79	31.0	1	5	112	0.00	30.279 
10:55	37.0	37.0	37.0	79	31.1	2	5	112	0.00	30.283 
11:00	37.0	37.0	37.0	78	30.8	2	7	112	0.00	30.282 
11:05	37.5	37.5	37.5	81	32.2	1	3	135	0.00	30.277 
11:10	37.5	37.5	37.5	77	31.0	2	8	90	0.00	30.274 
11:15	37.5	37.5	37.5	78	31.3	3	7	112	0.00	30.275 
11:20	37.6	37.6	37.6	78	31.4	2	7	90	0.00	30.276 
11:25	37.9	37.9	37.9	79	32.0	1	4	112	0.00	30.278 
11:30	38.2	38.2	38.2	79	32.3	2	7	90	0.00	30.277 
11:35	38.3	38.3	38.3	78	32.1	2	7	90	0.00	30.277 
11:40	38.6	38.6	38.6	79	32.7	2	6	112	0.00	30.272 
11:45	38.8	38.8	38.8	77	32.2	2	8	112	0.00	30.271 
11:50	38.8	35.9	38.8	77	32.2	4	10	90	0.00	30.271 
11:55	38.8	38.8	38.8	77	32.2	3	7	112	0.00	30.270 
12:00	38.9	38.9	38.9	75	31.7	2	4	90	0.00	30.270 
12:05	39.3	39.3	39.3	77	32.7	2	7	112	0.00	30.270 
12:10	39.8	39.8	39.8	74	32.2	3	7	90	0.00	30.270 
12:15	39.6	39.6	39.6	74	32.0	3	7	90	0.00	30.270 
12:20	39.9	39.9	39.9	75	32.6	3	7	112	0.00	30.270 
12:25	40.1	40.1	40.1	74	32.5	2	5	112	0.00	30.269 
12:30	39.9	39.9	39.9	74	32.3	2	6	112	0.00	30.269 
12:35	39.9	39.9	39.9	74	32.3	3	9	112	0.00	30.269 
12:40	40.2	40.2	40.2	75	32.9	2	10	112	0.00	30.264 
12:45	40.5	40.5	40.5	73	32.5	2	7	90	0.00	30.263 
12:50	40.6	40.6	40.6	73	32.6	1	4	112	0.00	30.265 
12:55	40.6	40.6	40.6	73	32.6	1	3	22	0.00	30.262 
13:00	40.6	40.6	40.6	73	32.6	1	3	112	0.00	30.259 
13:05	40.5	40.5	40.5	73	32.5	2	6	112	0.00	30.262 
13:10	40.5	40.5	40.5	74	32.9	3	7	112	0.00	30.264 
13:15	40.5	40.5	40.5	75	33.2	2	5	90	0.00	30.261 
13:20	40.6	40.6	40.6	75	33.3	3	6	112	0.00	30.260 
13:25	40.6	40.6	40.6	75	33.3	2	6	90	0.00	30.260 
13:30	40.6	40.6	40.6	76	33.6	2	7	112	0.00	30.260 
13:35	40.6	40.6	40.6	75	33.3	2	7	112	0.00	30.259 
13:40	40.3	40.3	40.3	76	33.3	3	8	90	0.00	30.258 
13:45	40.2	37.5	40.2	76	33.3	4	10	112	0.00	30.257 
13:50	40.2	40.2	40.2	77	33.6	3	9	90	0.00	30.254 
13:55	40.1	37.4	40.1	77	33.5	4	7	90	0.00	30.255 
14:00	40.2	40.2	40.2	77	33.6	3	9	112	0.00	30.253 
14:05	40.3	40.3	40.3	77	33.7	3	7	112	0.00	30.253 
14:10	40.3	40.3	40.3	77	33.7	2	6	112	0.00	30.254 
14:15	40.2	40.2	40.2	77	33.6	3	10	112	0.00	30.254 
14:20	40.2	40.2	40.2	78	33.9	2	4	90	0.00	30.255 
14:25	40.1	40.1	40.1	77	33.5	2	6	112	0.00	30.254 
14:30	39.9	39.9	39.9	77	33.3	3	7	112	0.00	30.254 
14:35	39.9	39.9	39.9	76	33.0	3	7	112	0.00	30.255 
14:40	39.9	39.9	39.9	77	33.3	2	4	112	0.00	30.255 
14:45	40.1	40.1	40.1	77	33.5	2	6	90	0.00	30.255 
14:50	40.1	40.1	40.1	77	33.5	1	4	90	0.00	30.255 
14:55	40.1	40.1	40.1	77	33.5	1	4	90	0.00	30.254 
15:00	40.1	40.1	40.1	77	33.5	2	5	90	0.00	30.254 
15:05	40.2	40.2	40.2	77	33.6	2	4	112	0.00	30.254 
15:10	40.2	40.2	40.2	77	33.6	1	6	90	0.00	30.255 
15:15	40.2	40.2	40.2	76	33.3	2	6	90	0.00	30.255 
15:20	40.2	40.2	40.2	77	33.6	1	4	90	0.00	30.254 
15:25	40.2	40.2	40.2	76	33.3	1	6	90	0.00	30.253 
15:30	40.2	40.2	40.2	76	33.3	2	7	90	0.00	30.254 
15:35	40.2	40.2	40.2	76	33.3	1	4	45	0.00	30.254 
15:40	40.2	40.2	40.2	76	33.3	2	6	112	0.00	30.255 
15:45	39.9	39.9	39.9	76	33.0	2	4	112	0.00	30.258 
15:50	39.9	39.9	39.9	76	33.0	1	5	135	0.00	30.265 
15:55	39.9	39.9	39.9	76	33.0	2	4	112	0.00	30.269 
16:00	40.1	40.1	40.1	75	32.8	3	7	112	0.00	30.269 
16:05	40.2	40.2	40.2	75	32.9	2	5	112	0.00	30.270 
16:10	40.2	40.2	40.2	74	32.6	1	5	90	0.00	30.270 
16:15	40.2	40.2	40.2	74	32.6	2	5	90	0.00	30.271 
16:20	40.2	40.2	40.2	74	32.6	1	4	112	0.00	30.270 
16:25	40.2	40.2	40.2	74	32.6	1	4	112	0.00	30.271 
16:30	40.1	40.1	40.1	74	32.5	1	4	112	0.00	30.272 
16:35	40.1	40.1	40.1	75	32.8	1	3	112	0.00	30.277 
16:40	40.1	40.1	40.1	75	32.8	1	2	112	0.00	30.278 
16:45	39.9	39.9	39.9	75	32.6	0	2	112	0.00	30.274 
16:50	39.9	39.9	39.9	76	33.0	1	3	112	0.00	30.275 
16:55	39.9	39.9	39.9	77	33.3	0	1	112	0.00	30.276 
17:00	39.8	39.8	39.8	77	33.2	0	1	112	0.00	30.273 
17:05	39.8	39.8	39.8	77	33.2	0	2	112	0.00	30.274 
17:10	39.6	39.6	39.6	78	33.3	0	2	112	0.00	30.272 
17:15	39.6	39.6	39.6	77	33.0	0	2	112	0.00	30.272 
17:20	39.6	39.6	39.6	77	33.0	0	1	112	0.00	30.271 
17:25	39.6	39.6	39.6	78	33.3	0	1	112	0.00	30.271 
17:30	39.6	39.6	39.6	78	33.3	0	2	112	0.00	30.270 
17:35	39.6	39.6	39.6	78	33.3	0	2	112	0.00	30.270 
17:40	39.6	39.6	39.6	79	33.6	0	1	112	0.00	30.270 
17:45	39.5	39.5	39.5	79	33.5	0	1	112	0.00	30.271 
17:50	39.5	39.5	39.5	79	33.5	0	2	112	0.00	30.273 
17:55	39.3	39.3	39.3	79	33.3	0	2	112	0.00	30.279 
18:00	39.2	39.2	39.2	79	33.2	0	1	112	0.00	30.280 
18:05	39.1	39.1	39.1	80	33.5	0	0	---	0.00	30.278 
18:10	38.8	38.8	38.8	80	33.2	0	1	112	0.00	30.272 
18:15	38.5	38.5	38.5	81	33.2	0	1	112	0.00	30.272 
18:20	38.3	38.3	38.3	81	33.0	0	1	112	0.00	30.275 
18:25	38.2	38.2	38.2	81	32.9	0	2	112	0.00	30.274 
18:30	38.0	38.0	38.0	82	33.0	1	3	112	0.00	30.275 
18:35	38.0	38.0	38.0	82	33.0	1	3	112	0.00	30.278 
18:40	37.9	37.9	37.9	82	32.9	1	4	112	0.00	30.277 
18:45	37.8	37.8	37.8	82	32.8	1	3	90	0.00	30.277 
18:50	37.8	37.8	37.8	82	32.8	1	3	112	0.00	30.278 
18:55	37.6	37.6	37.6	83	32.9	1	3	112	0.00	30.276 
19:00	37.3	37.3	37.3	83	32.6	1	2	112	0.00	30.275 
19:05	37.2	37.2	37.2	84	32.8	1	3	90	0.00	30.276 
19:10	37.0	37.0	37.0	84	32.6	1	2	90	0.00	30.276 
19:15	37.0	37.0	37.0	84	32.6	1	3	90	0.00	30.278 
19:20	36.8	36.8	36.8	85	32.7	1	3	90	0.00	30.276 
19:25	36.6	36.6	36.6	85	32.5	0	2	90	0.00	30.275 
19:30	36.5	36.5	36.5	86	32.7	0	3	90	0.00	30.279 
19:35	36.5	36.5	36.5	86	32.7	1	3	90	0.00	30.281 
19:40	36.5	36.5	36.5	86	32.7	1	2	90	0.00	30.279 
19:45	36.5	36.5	36.5	87	33.0	1	2	90	0.00	30.278 
19:50	36.3	36.3	36.3	87	32.8	1	3	90	0.00	30.277 
19:55	36.2	36.2	36.2	87	32.7	1	4	90	0.00	30.275 
20:00	36.2	36.2	36.2	87	32.7	2	4	90	0.00	30.275 
20:05	36.0	36.0	36.0	87	32.5	1	4	90	0.00	30.275 
20:10	36.2	36.2	36.2	87	32.7	2	6	90	0.00	30.275 
20:15	36.3	36.3	36.3	87	32.8	2	4	112	0.00	30.274 
20:20	36.3	36.3	36.3	87	32.8	2	5	90	0.00	30.274 
20:25	36.5	36.5	36.5	86	32.7	2	4	90	0.00	30.272 
20:30	36.6	36.6	36.6	86	32.8	2	5	112	0.00	30.271 
20:35	36.6	36.6	36.6	86	32.8	2	5	90	0.00	30.272 
20:40	36.8	36.8	36.8	86	33.0	2	5	112	0.00	30.272 
20:45	36.8	36.8	36.8	85	32.7	2	5	90	0.00	30.271 
20:50	36.8	36.8	36.8	85	32.7	2	5	90	0.00	30.270 
20:55	36.6	36.6	36.6	85	32.5	2	5	90	0.00	30.267 
21:00	36.6	36.6	36.6	85	32.5	2	4	90	0.00	30.265 
21:05	36.5	36.5	36.5	85	32.4	2	4	112	0.00	30.268 
21:10	36.5	36.5	36.5	85	32.4	2	5	90	0.00	30.266 
21:15	36.3	36.3	36.3	85	32.2	2	5	90	0.00	30.265 
21:20	36.2	36.2	36.2	85	32.1	2	6	90	0.00	30.265 
21:25	36.2	36.2	36.2	85	32.1	2	4	90	0.00	30.264 
21:30	36.0	36.0	36.0	85	31.9	1	5	90	0.00	30.269 
21:35	36.0	36.0	36.0	86	32.2	2	5	90	0.00	30.267 
21:40	36.0	36.0	36.0	85	31.9	2	4	90	0.00	30.267 
21:45	35.9	35.9	35.9	85	31.8	1	3	90	0.00	30.269 
21:50	35.9	35.9	35.9	85	31.8	2	4	90	0.00	30.267 
21:55	35.9	35.9	35.9	85	31.8	2	4	90	0.00	30.264 
22:00	35.9	35.9	35.9	85	31.8	3	5	112	0.00	30.264 
22:05	35.9	35.9	35.9	85	31.8	2	6	90	0.00	30.263 
22:10	35.9	35.9	35.9	85	31.8	1	4	112	0.00	30.267 
22:15	35.8	35.8	35.8	86	32.0	2	4	112	0.00	30.271 
22:20	35.6	35.6	35.6	86	31.8	1	3	112	0.00	30.272 
22:25	35.6	35.6	35.6	86	31.8	1	3	112	0.00	30.271 
22:30	35.5	35.5	35.5	86	31.7	1	4	112	0.00	30.273 
22:35	35.5	35.5	35.5	87	32.0	2	4	90	0.00	30.274 
22:40	35.5	35.5	35.5	87	32.0	1	2	90	0.00	30.274 
22:45	35.5	35.5	35.5	87	32.0	1	3	90	0.00	30.274 
22:50	35.5	35.5	35.5	87	32.0	1	3	90	0.00	30.274 
22:55	35.5	35.5	35.5	87	32.0	1	3	90	0.00	30.274 
23:00	35.3	35.3	35.3	87	31.8	1	3	90	0.00	30.273 
23:05	35.3	35.3	35.3	88	32.1	1	4	90	0.00	30.269 
23:10	35.3	35.3	35.3	88	32.1	1	3	112	0.00	30.268 
23:15	35.3	35.3	35.3	88	32.1	2	5	90	0.00	30.268 
23:20	35.2	35.2	35.2	88	32.0	1	3	112	0.00	30.268 
23:25	35.2	35.2	35.2	88	32.0	1	3	112	0.00	30.262 
23:30	35.0	35.0	35.0	88	31.8	0	2	112	0.00	30.263 
23:35	35.0	35.0	35.0	89	32.1	1	3	112	0.00	30.265 
23:40	35.0	35.0	35.0	89	32.1	2	4	112	0.00	30.269 
23:45	35.0	35.0	35.0	89	32.1	1	3	112	0.00	30.270 
23:50	35.0	35.0	35.0	89	32.1	1	2	112	0.00	30.268 
23:55	35.0	35.0	35.0	89	32.1	1	3	112	0.00	30.261 

CoCoRaHS
IN-AL-39
A2 Web Hosting
Creative Commons License
GoDaddy
Look for:

loaded 2017-12-12 07:34:58 • last modified 2010-11-18 10:43:29
Privacy PolicyDisclaimer
• wx.awcolley.com is powered by PmWiki v.2002016 •
• all content (unless otherwise noted) © 2017 A W Colley